This is the latest recevied weather packets stored in our database for station/object PY5KT-13. If no packets are shown the sender has not sent any weather packets the latest 10 day(s).
| Time | Temp. | Humidity | Pressure | Rain* | Wind** | Luminosity | Snow |
|---|---|---|---|---|---|---|---|
| 1778084948 | 28.89° C | 47% | 1022.2 hPa | 0 mm | - | 167 W/m² | - |
| 1778084647 | 30.56° C | 43% | 1022.2 hPa | 0 mm | - | 163 W/m² | - |
| 1778084344 | 30° C | 45% | 1022.3 hPa | 0 mm | - | 631 W/m² | - |
| 1778084043 | 30° C | 43% | 1022.3 hPa | 0 mm | - | 597 W/m² | - |
| 1778083741 | 30° C | 43% | 1022.4 hPa | 0 mm | - | 604 W/m² | - |
| 1778083439 | 30° C | 44% | 1022.5 hPa | 0 mm | - | 624 W/m² | - |
| 1778083137 | 30° C | 44% | 1022.6 hPa | 0 mm | - | 633 W/m² | - |
| 1778082835 | 30° C | 44% | 1022.7 hPa | 0 mm | - | 619 W/m² | - |
| 1778082535 | 28.33° C | 46% | 1022.9 hPa | 0 mm | - | 621 W/m² | - |
| 1778082233 | 28.33° C | 45% | 1023 hPa | 0 mm | - | 635 W/m² | - |
| 1778081931 | 30° C | 45% | 1023.1 hPa | 0 mm | - | 648 W/m² | - |
| 1778081629 | 30° C | 47% | 1023.3 hPa | 0 mm | - | 573 W/m² | - |
| 1778081327 | 28.89° C | 50% | 1023.4 hPa | 0 mm | - | 642 W/m² | - |
| 1778081025 | 28.89° C | 48% | 1023.5 hPa | 0 mm | - | 273 W/m² | - |
| 1778080723 | 28.89° C | 48% | 1023.6 hPa | 0 mm | - | 466 W/m² | - |
| 1778080421 | 28.89° C | 47% | 1023.8 hPa | 0 mm | - | 456 W/m² | - |
| 1778080119 | 28.33° C | 47% | 1023.9 hPa | 0 mm | - | 544 W/m² | - |
| 1778079817 | 29.44° C | 46% | 1023.9 hPa | 0 mm | - | 607 W/m² | - |
| 1778079515 | 28.89° C | 51% | 1023.9 hPa | 0 mm | - | 629 W/m² | - |
| 1778079214 | 28.89° C | 51% | 1024 hPa | 0 mm | - | 619 W/m² | - |
| 1778078912 | 28.33° C | 54% | 1024.1 hPa | 0 mm | - | 487 W/m² | - |
| 1778078610 | 27.78° C | 54% | 1024.1 hPa | 0 mm | - | 524 W/m² | - |
| 1778078308 | 28.33° C | 54% | 1024.1 hPa | 0 mm | - | 476 W/m² | - |
| 1778078006 | 27.78° C | 54% | 1024.2 hPa | 0 mm | - | 549 W/m² | - |
| 1778077704 | 27.22° C | 56% | 1024.3 hPa | 0 mm | - | 508 W/m² | - |
* Rain latest hour (hover to see other rain measurements)
** Current wind speed in m/s (hover to see current wind gust speed)